Terminal Aerodrome Forecast
Issued by NWS

Home | Current Version | Previous Version | Text Only | Print | Product List | Glossary On
Versions: 1 2 3 4 5 6 7 8 9 10 11 12 13 14 15 16 17 18
000
FTUS41 KBGM 221141
TAFRME
TAF
KRME 221141Z 2212/2312 29009KT P6SM OVC020
      TEMPO 2212/2215 4SM -RA OVC012
     FM221600 31009G17KT P6SM OVC025
     FM221900 31011G20KT P6SM BKN035
     FM230100 31007KT P6SM BKN045=

USA.gov is the U.S. government's official web portal to all federal, state and local government web resources and services.